Time;durP1;ratioP1;P1;durP2;ratioP2;P2;SDS_P1;SDS_P2;PMS_P1;PMS_P2;Temp;Humidity;BMP_temperature;BMP_pressure;BME280_temperature;BME280_humidity;BME280_pressure;Samples;Min_cycle;Max_cycle;Signal;HPM_P1;HPM_P2
2022/05/22 00:00:40;;;;;;;10.18;1.25;;;;;;;18.30;54.54;100616.49;1716495;83;26087;-59
2022/05/22 00:03:08;;;;;;;10.60;1.20;;;;;;;18.26;55.25;100622.02;1716454;83;25725;-60
2022/05/22 00:05:35;;;;;;;8.80;1.50;;;;;;;18.18;55.77;100621.26;1716659;82;27485;-59
2022/05/22 00:08:05;;;;;;;5.25;1.85;;;;;;;18.07;57.62;100628.88;1743763;82;25755;-59
2022/05/22 00:10:32;;;;;;;10.35;1.87;;;;;;;17.98;57.26;100618.62;1747166;81;25728;-60
2022/05/22 00:12:59;;;;;;;8.78;1.30;;;;;;;17.95;57.21;100618.12;1747593;82;26834;-59
2022/05/22 00:15:26;;;;;;;4.22;1.42;;;;;;;17.93;57.34;100622.38;1747247;80;25738;-60
2022/05/22 00:17:53;;;;;;;6.00;1.15;;;;;;;17.93;57.61;100616.09;1747093;80;28351;-60
2022/05/22 00:20:20;;;;;;;6.10;1.10;;;;;;;17.94;57.53;100600.93;1747287;80;25784;-59
2022/05/22 00:22:46;;;;;;;20.90;1.62;;;;;;;17.96;57.90;100602.16;1747520;82;25770;-59
2022/05/22 00:25:14;;;;;;;6.10;1.22;;;;;;;17.96;58.68;100590.73;1747272;80;26135;-59
2022/05/22 00:27:42;;;;;;;6.65;1.20;;;;;;;17.98;58.42;100587.81;1747132;82;27330;-60
2022/05/22 00:30:13;;;;;;;4.83;1.10;;;;;;;18.00;58.85;100593.92;1747210;82;27607;-59
2022/05/22 00:32:42;;;;;;;8.85;1.82;;;;;;;17.96;58.74;100603.52;1746365;82;25749;-59
2022/05/22 00:35:12;;;;;;;12.07;1.70;;;;;;;17.96;58.40;100598.91;1745691;82;36340;-59
2022/05/22 00:37:39;;;;;;;8.08;1.30;;;;;;;17.90;57.89;100591.97;1745462;82;25735;-59
2022/05/22 00:40:08;;;;;;;7.55;1.40;;;;;;;17.94;59.83;100589.22;1745592;82;25799;-60
2022/05/22 00:42:35;;;;;;;10.70;1.72;;;;;;;17.90;59.06;100593.33;1746424;80;28380;-60
2022/05/22 00:45:06;;;;;;;8.48;1.35;;;;;;;17.90;59.54;100586.53;1747273;82;25690;-60
2022/05/22 00:47:33;;;;;;;9.45;1.10;;;;;;;17.84;59.15;100579.96;1745708;82;25748;-60
2022/05/22 00:50:00;;;;;;;13.75;1.25;;;;;;;17.76;58.68;100574.12;1745518;82;26188;-60
2022/05/22 00:52:40;;;;;;;9.08;1.77;;;;;;;17.71;58.72;100577.91;1745616;82;25458;-60
2022/05/22 00:55:24;;;;;;;7.35;1.32;;;;;;;17.64;58.85;100580.56;1744578;82;28196;-59
2022/05/22 00:57:56;;;;;;;10.45;1.25;;;;;;;17.66;58.75;100579.00;1745633;82;26125;-59
2022/05/22 01:00:28;;;;;;;8.28;1.05;;;;;;;17.61;58.16;100577.38;1745583;82;25775;-60
2022/05/22 01:05:45;;;;;;;7.55;1.82;;;;;;;17.62;57.41;100582.61;1745940;82;26016;-60
2022/05/22 01:08:12;;;;;;;14.00;1.25;;;;;;;17.63;57.41;100576.64;1745766;82;27457;-60
2022/05/22 01:10:49;;;;;;;7.15;1.60;;;;;;;17.58;57.24;100579.09;1747275;82;25753;-60
2022/05/22 01:13:21;;;;;;;6.42;1.07;;;;;;;17.56;57.20;100583.88;1747366;82;25685;-61
2022/05/22 01:15:49;;;;;;;8.55;1.50;;;;;;;17.51;57.45;100583.07;1747561;82;26813;-60
2022/05/22 01:18:17;;;;;;;6.28;1.40;;;;;;;17.47;58.08;100578.52;1747387;80;25728;-61
2022/05/22 01:20:51;;;;;;;8.58;1.65;;;;;;;17.42;58.20;100570.09;1747676;80;28252;-60
2022/05/22 01:23:22;;;;;;;8.58;1.72;;;;;;;17.42;58.00;100574.67;1747248;80;25800;-59
2022/05/22 01:25:50;;;;;;;14.00;1.90;;;;;;;17.36;58.05;100578.48;1747235;82;25660;-60
2022/05/22 01:28:20;;;;;;;7.80;1.20;;;;;;;17.35;58.32;100570.48;1747331;82;26761;-60
2022/05/22 01:30:48;;;;;;;14.83;1.77;;;;;;;17.39;58.49;100564.19;1747649;82;25827;-60
2022/05/22 01:33:15;;;;;;;11.50;2.12;;;;;;;17.42;58.24;100567.88;1746245;81;27625;-59
2022/05/22 01:35:42;;;;;;;7.05;1.40;;;;;;;17.43;58.11;100570.92;1745994;82;25811;-60
2022/05/22 01:38:10;;;;;;;8.15;1.45;;;;;;;17.45;58.35;100562.91;1745757;82;25639;-60
2022/05/22 01:40:42;;;;;;;2.50;1.10;;;;;;;17.46;58.64;100559.16;1745918;82;26774;-60
2022/05/22 01:43:10;;;;;;;16.62;1.98;;;;;;;17.43;58.59;100562.77;1747110;82;25710;-60
2022/05/22 01:45:40;;;;;;;6.53;1.42;;;;;;;17.46;58.83;100561.05;1747422;80;27594;-60
2022/05/22 01:48:07;;;;;;;7.80;1.62;;;;;;;17.47;58.88;100566.28;1745590;82;25773;-61
2022/05/22 01:50:41;;;;;;;6.35;1.20;;;;;;;17.48;59.27;100563.90;1745384;82;25716;-60
2022/05/22 01:53:09;;;;;;;4.17;1.20;;;;;;;17.50;58.77;100565.06;1718270;82;26146;-59
2022/05/22 01:55:37;;;;;;;8.58;1.02;;;;;;;17.52;58.55;100566.59;1745887;82;26174;-60
2022/05/22 01:58:07;;;;;;;16.25;1.60;;;;;;;17.54;58.47;100575.91;1745546;82;27554;-60
2022/05/22 02:00:37;;;;;;;5.95;0.90;;;;;;;17.61;58.49;100584.17;1745890;82;25749;-60
2022/05/22 02:03:06;;;;;;;14.50;1.05;;;;;;;17.66;58.50;100568.13;1745681;82;25752;-60
2022/05/22 02:05:35;;;;;;;5.90;1.35;;;;;;;17.65;58.32;100567.79;1746038;82;26021;-60
2022/05/22 02:08:19;;;;;;;9.50;1.10;;;;;;;17.67;58.14;100562.48;1745714;82;25814;-59
2022/05/22 02:10:51;;;;;;;12.90;1.37;;;;;;;17.66;57.94;100555.34;1749853;81;27434;-59
2022/05/22 02:13:23;;;;;;;8.68;1.50;;;;;;;17.63;57.46;100552.16;1755193;81;25751;-59
2022/05/22 02:15:51;;;;;;;16.80;1.50;;;;;;;17.62;56.91;100555.41;1755555;81;25798;-59
2022/05/22 02:18:18;;;;;;;7.20;1.15;;;;;;;17.61;57.05;100546.09;1755259;81;26084;-59
2022/05/22 02:20:47;;;;;;;8.88;1.62;;;;;;;17.63;56.98;100538.56;1733187;82;25924;-59
2022/05/22 02:23:17;;;;;;;8.08;1.40;;;;;;;17.62;56.55;100536.88;1758080;81;28151;-59
2022/05/22 02:25:52;;;;;;;7.87;1.55;;;;;;;17.58;56.31;100546.45;1757907;81;25825;-61
2022/05/22 02:28:21;;;;;;;2.30;1.05;;;;;;;17.57;56.46;100554.28;1758173;80;25797;-60
2022/05/22 02:30:58;;;;;;;6.60;1.55;;;;;;;17.53;56.23;100545.66;1757979;80;26088;-60
2022/05/22 02:33:26;;;;;;;18.35;1.70;;;;;;;17.49;56.02;100542.97;1745514;81;26211;-59
2022/05/22 02:35:56;;;;;;;11.38;1.42;;;;;;;17.43;56.23;100537.80;1742597;82;27495;-60
2022/05/22 02:38:25;;;;;;;13.00;1.65;;;;;;;17.37;56.34;100534.45;1742357;82;25728;-61
2022/05/22 02:40:53;;;;;;;9.63;1.52;;;;;;;17.30;56.57;100530.27;1742961;82;25449;-61
2022/05/22 02:43:20;;;;;;;9.45;1.20;;;;;;;17.25;56.74;100537.31;1744343;80;28179;-60
2022/05/22 02:45:49;;;;;;;22.65;2.10;;;;;;;17.18;56.86;100540.75;1743661;80;26079;-60
2022/05/22 02:48:17;;;;;;;12.63;1.22;;;;;;;17.13;56.99;100535.05;1713693;82;27473;-59
2022/05/22 02:50:57;;;;;;;5.70;1.70;;;;;;;17.11;57.17;100538.45;1742369;82;25818;-59
2022/05/22 02:53:24;;;;;;;17.48;2.12;;;;;;;17.05;57.18;100533.23;1743279;82;25732;-59
2022/05/22 02:56:20;;;;;;;9.05;1.67;;;;;;;17.00;57.53;100536.17;1740464;82;26129;-59
2022/05/22 02:59:08;;;;;;;14.00;1.47;;;;;;;16.94;57.79;100540.50;1716393;82;25515;-60
2022/05/22 03:01:48;;;;;;;8.50;1.57;;;;;;;16.90;57.68;100540.49;1716425;82;26847;-60
2022/05/22 03:04:15;;;;;;;18.62;1.40;;;;;;;16.87;57.76;100548.50;1742853;82;27201;-59
2022/05/22 03:06:42;;;;;;;7.85;1.27;;;;;;;16.84;57.84;100542.59;1742941;82;25792;-59
2022/05/22 03:09:15;;;;;;;3.55;1.37;;;;;;;16.82;58.00;100539.20;1742882;82;28151;-59
2022/05/22 03:11:46;;;;;;;16.62;1.67;;;;;;;16.81;58.22;100542.95;1743018;81;26066;-60
2022/05/22 03:14:15;;;;;;;5.62;1.15;;;;;;;16.79;58.13;100539.06;1743061;82;27466;-60
2022/05/22 03:16:42;;;;;;;5.90;1.37;;;;;;;16.79;58.16;100538.20;1742783;82;25791;-60
2022/05/22 03:19:14;;;;;;;7.70;1.30;;;;;;;16.78;58.21;100532.44;1741443;82;25629;-60
2022/05/22 03:21:43;;;;;;;8.98;1.40;;;;;;;16.79;58.40;100537.70;1743284;82;26225;-61
2022/05/22 03:24:10;;;;;;;2.70;1.20;;;;;;;16.78;58.35;100540.59;1742864;82;25692;-60
2022/05/22 03:26:38;;;;;;;4.50;1.40;;;;;;;16.79;58.38;100539.56;1743010;82;27470;-60
2022/05/22 03:29:06;;;;;;;7.62;1.30;;;;;;;16.76;58.72;100535.87;1742705;82;25707;-60
2022/05/22 03:31:33;;;;;;;13.65;1.65;;;;;;;16.72;58.59;100534.88;1743001;80;25809;-61
2022/05/22 03:34:00;;;;;;;6.67;1.10;;;;;;;16.72;58.92;100529.94;1742877;82;26110;-60
2022/05/22 03:36:27;;;;;;;9.88;1.57;;;;;;;16.69;58.79;100535.75;1713774;82;27355;-60
2022/05/22 03:38:54;;;;;;;3.95;1.20;;;;;;;16.71;59.20;100531.82;1743161;81;28554;-60
2022/05/22 03:41:22;;;;;;;5.60;1.05;;;;;;;16.75;59.37;100533.66;1742823;82;25793;-60
2022/05/22 03:43:51;;;;;;;12.63;1.50;;;;;;;16.78;59.60;100529.22;1744495;80;25714;-59
2022/05/22 03:46:20;;;;;;;3.70;1.00;;;;;;;16.84;60.03;100528.48;1742493;81;26124;-60
2022/05/22 03:48:48;;;;;;;8.20;0.98;;;;;;;16.83;59.88;100522.72;1744650;82;25987;-59
2022/05/22 03:51:15;;;;;;;5.15;1.30;;;;;;;16.87;59.72;100519.98;1744557;82;27529;-60
2022/05/22 03:53:42;;;;;;;3.47;1.00;;;;;;;16.93;59.83;100513.00;1744350;80;25648;-59
2022/05/22 03:56:14;;;;;;;5.97;1.17;;;;;;;16.99;59.81;100512.74;1743539;80;26294;-59
2022/05/22 03:58:43;;;;;;;11.25;1.10;;;;;;;17.05;59.90;100516.10;1744623;82;26081;-60
2022/05/22 04:01:11;;;;;;;7.15;1.02;;;;;;;17.13;59.78;100516.02;1744817;82;25962;-61
2022/05/22 04:03:40;;;;;;;6.10;1.27;;;;;;;17.21;59.67;100520.00;1743212;80;27774;-61
2022/05/22 04:06:10;;;;;;;4.53;1.10;;;;;;;17.30;59.29;100521.27;1744663;80;25757;-61
2022/05/22 04:08:38;;;;;;;6.42;1.35;;;;;;;17.35;58.97;100520.19;1704833;82;25649;-60
2022/05/22 04:11:12;;;;;;;6.15;1.10;;;;;;;17.39;58.74;100522.88;1723360;83;26265;-60
2022/05/22 04:13:40;;;;;;;7.55;1.30;;;;;;;17.41;58.70;100528.97;1722777;81;25677;-61
2022/05/22 04:16:08;;;;;;;6.10;1.27;;;;;;;17.39;56.31;100524.23;1723386;83;27576;-59
2022/05/22 04:18:35;;;;;;;6.33;1.60;;;;;;;17.39;56.52;100520.16;1722884;81;25865;-59
2022/05/22 04:21:03;;;;;;;15.28;1.87;;;;;;;17.43;56.65;100520.12;1723221;81;25751;-60
2022/05/22 04:26:31;;;;;;;4.30;1.37;;;;;;;17.39;55.44;100520.16;1671225;85;25739;-61
2022/05/22 04:28:59;;;;;;;8.53;1.67;;;;;;;17.34;55.29;100522.61;1710243;81;27662;-61
2022/05/22 04:31:28;;;;;;;9.23;1.82;;;;;;;17.25;54.92;100517.75;1727976;81;26003;-61
2022/05/22 04:34:02;;;;;;;9.75;1.70;;;;;;;17.22;54.94;100515.40;1697266;82;25675;-59
2022/05/22 04:36:30;;;;;;;5.03;1.57;;;;;;;17.29;54.60;100520.94;1698762;82;27047;-60
2022/05/22 04:38:57;;;;;;;8.68;1.45;;;;;;;17.23;54.03;100515.73;1698791;82;25449;-61
2022/05/22 04:41:24;;;;;;;10.10;1.62;;;;;;;17.15;53.32;100522.12;1703061;80;27516;-60
2022/05/22 04:43:51;;;;;;;6.08;1.42;;;;;;;17.09;53.78;100518.77;1757713;80;25474;-60
2022/05/22 04:46:19;;;;;;;10.82;1.82;;;;;;;17.04;53.81;100517.95;1722284;83;25784;-60
2022/05/22 04:48:46;;;;;;;10.05;1.70;;;;;;;16.95;54.16;100514.98;1721512;82;26107;-60
2022/05/22 04:51:13;;;;;;;6.60;1.22;;;;;;;16.91;54.54;100515.02;1721327;81;25834;-60
2022/05/22 04:53:51;;;;;;;13.85;1.57;;;;;;;16.90;54.69;100512.80;1721046;83;27377;-60
2022/05/22 04:56:26;;;;;;;9.03;1.50;;;;;;;17.00;54.74;100512.58;1720652;83;25650;-60
2022/05/22 04:58:55;;;;;;;7.17;1.90;;;;;;;17.10;54.71;100515.55;1722290;81;25866;-60
2022/05/22 05:01:24;;;;;;;9.63;2.45;;;;;;;17.17;54.98;100515.13;1722749;81;26318;-59
2022/05/22 05:03:55;;;;;;;20.60;1.80;;;;;;;17.20;54.86;100508.80;1721957;81;25480;-59
2022/05/22 05:06:22;;;;;;;3.58;1.30;;;;;;;17.20;54.81;100510.69;1722921;83;27496;-60
2022/05/22 05:08:51;;;;;;;7.62;1.70;;;;;;;17.18;54.82;100513.57;1721529;81;25815;-59
2022/05/22 05:11:20;;;;;;;12.73;2.70;;;;;;;17.27;54.89;100518.42;1725076;81;25692;-60
2022/05/22 05:14:01;;;;;;;8.35;1.87;;;;;;;17.26;54.52;100517.26;1724558;83;26146;-59
2022/05/22 05:16:29;;;;;;;13.22;2.45;;;;;;;17.33;54.25;100509.50;1721198;83;25484;-59
2022/05/22 05:19:05;;;;;;;13.22;1.92;;;;;;;17.41;53.66;100508.58;1720677;82;29732;-61
2022/05/22 05:21:34;;;;;;;12.68;1.62;;;;;;;17.53;53.23;100515.75;1721020;83;25518;-61
2022/05/22 05:24:04;;;;;;;7.33;1.80;;;;;;;17.58;52.92;100510.57;1721220;83;25713;-60
2022/05/22 05:26:34;;;;;;;24.90;2.25;;;;;;;17.64;52.41;100519.86;1725928;83;26823;-61
2022/05/22 05:29:03;;;;;;;6.20;2.45;;;;;;;17.70;52.25;100530.00;1720488;83;25770;-60
2022/05/22 05:31:31;;;;;;;11.22;1.60;;;;;;;17.81;52.38;100523.22;1725192;83;27451;-60
2022/05/22 05:33:58;;;;;;;11.00;1.92;;;;;;;17.91;51.39;100510.67;1696858;84;25820;-59
2022/05/22 05:36:40;;;;;;;10.78;1.95;;;;;;;18.01;50.66;100514.50;1697108;84;25743;-59
2022/05/22 05:39:10;;;;;;;11.63;2.25;;;;;;;18.09;49.73;100504.84;1697111;83;26050;-59
2022/05/22 05:41:48;;;;;;;3.80;1.40;;;;;;;18.22;49.83;100506.88;1696728;82;25496;-60
2022/05/22 05:44:16;;;;;;;5.42;2.17;;;;;;;18.34;48.80;100497.66;1696819;84;27420;-60
2022/05/22 05:46:56;;;;;;;7.15;1.55;;;;;;;18.48;48.03;100498.64;1712475;83;25938;-61
2022/05/22 05:49:24;;;;;;;6.03;1.17;;;;;;;18.46;44.91;100502.40;1726166;83;25717;-61
2022/05/22 05:51:53;;;;;;;10.48;1.30;;;;;;;18.45;45.52;100497.16;1718702;83;26643;-59
2022/05/22 05:54:21;;;;;;;6.87;1.30;;;;;;;18.49;45.94;100489.44;1720690;82;27224;-58
2022/05/22 05:56:58;;;;;;;6.83;1.00;;;;;;;18.58;46.39;100499.16;1718384;82;27311;-60
2022/05/22 05:59:27;;;;;;;7.53;1.20;;;;;;;18.70;45.35;100496.73;1720806;83;26045;-59
2022/05/22 06:01:56;;;;;;;6.12;1.10;;;;;;;18.76;44.64;100506.84;1719615;83;25691;-60
2022/05/22 06:04:23;;;;;;;9.40;1.07;;;;;;;18.79;44.34;100507.82;1720723;81;26040;-60
2022/05/22 06:06:49;;;;;;;5.60;1.52;;;;;;;18.78;43.99;100505.59;1721217;83;25654;-59
2022/05/22 06:09:16;;;;;;;7.58;1.87;;;;;;;18.77;43.87;100502.58;1717944;80;27422;-59
2022/05/22 06:11:48;;;;;;;2.37;0.85;;;;;;;18.71;42.85;100496.53;1712415;82;25878;-59
2022/05/22 06:14:19;;;;;;;5.33;0.98;;;;;;;18.74;43.08;100493.92;1715691;83;25738;-59
2022/05/22 06:16:47;;;;;;;4.60;1.17;;;;;;;18.81;41.98;100500.30;1716137;82;26075;-59
2022/05/22 06:19:53;;;;;;;3.58;1.15;;;;;;;18.77;42.45;100486.23;1734521;82;25502;-59
2022/05/22 06:21:47;;;;;;;5.75;1.00;;;;;;;18.81;41.97;100492.13;1736520;82;27526;-66
2022/05/22 06:24:14;;;;;;;5.15;0.85;;;;;;;18.83;41.85;100483.73;1739532;81;25777;-59
2022/05/22 06:26:59;;;;;;;2.83;0.55;;;;;;;18.92;42.71;100482.05;1739379;82;25751;-59
2022/05/22 06:29:44;;;;;;;2.12;0.75;;;;;;;18.90;39.21;100481.91;1737045;81;26128;-59
2022/05/22 06:32:21;;;;;;;7.12;0.75;;;;;;;18.80;40.20;100489.58;1731706;82;25710;-60
2022/05/22 06:34:58;;;;;;;2.60;0.80;;;;;;;18.77;39.67;100493.04;1714265;83;27511;-59
2022/05/22 06:37:27;;;;;;;1.17;0.82;;;;;;;18.65;39.09;100480.16;1679131;83;26195;-59
2022/05/22 06:39:56;;;;;;;6.37;0.90;;;;;;;18.57;39.57;100486.57;1714183;83;25796;-59
2022/05/22 06:42:34;;;;;;;3.25;0.80;;;;;;;18.50;39.69;100487.86;1716090;82;26061;-61
2022/05/22 06:45:25;;;;;;;0.90;0.53;;;;;;;18.58;39.84;100479.55;1716420;83;25739;-60
2022/05/22 06:48:09;;;;;;;3.55;0.57;;;;;;;18.75;40.07;100477.91;1687498;83;27598;-60
2022/05/22 06:50:55;;;;;;;1.60;0.60;;;;;;;18.84;39.01;100486.26;1737192;81;25715;-62
2022/05/22 06:53:28;;;;;;;7.60;0.70;;;;;;;18.86;38.94;100471.09;1739365;82;25745;-60
2022/05/22 06:55:56;;;;;;;9.63;0.80;;;;;;;18.97;39.78;100460.19;1735508;82;27123;-59
2022/05/22 06:58:34;;;;;;;2.45;0.57;;;;;;;19.03;39.09;100464.33;1665561;85;25851;-60
2022/05/22 07:01:17;;;;;;;7.72;0.70;;;;;;;19.10;39.14;100460.25;1716327;83;27576;-59
2022/05/22 07:03:51;;;;;;;5.25;0.78;;;;;;;19.17;38.95;100454.84;1689297;82;25874;-59
2022/05/22 07:06:22;;;;;;;5.80;1.00;;;;;;;19.20;38.90;100455.82;1713359;83;25660;-59
2022/05/22 07:08:51;;;;;;;2.65;0.65;;;;;;;19.22;38.53;100450.48;1701529;82;26295;-59
2022/05/22 07:11:40;;;;;;;18.12;1.55;;;;;;;19.26;38.24;100448.19;1722091;83;25675;-59
2022/05/22 07:14:18;;;;;;;3.52;0.57;;;;;;;19.39;38.63;100444.69;1720330;83;27598;-59
2022/05/22 07:16:52;;;;;;;3.58;0.62;;;;;;;19.50;38.29;100440.02;1701187;82;25773;-60
2022/05/22 07:19:21;;;;;;;5.47;0.85;;;;;;;19.60;38.48;100430.62;1725482;81;25868;-60
2022/05/22 07:21:56;;;;;;;2.92;1.80;;;;;;;19.70;38.50;100435.17;1742953;81;26144;-61
2022/05/22 07:24:42;;;;;;;6.35;1.90;;;;;;;19.88;38.31;100425.59;1752024;80;25691;-60
2022/05/22 07:27:25;;;;;;;2.52;0.55;;;;;;;20.07;37.85;100423.94;1692275;83;28239;-60
2022/05/22 07:29:54;;;;;;;1.37;0.75;;;;;;;20.23;37.18;100423.53;1688028;84;25761;-61
2022/05/22 07:32:22;;;;;;;5.45;0.72;;;;;;;20.40;37.76;100421.75;1699531;83;25786;-60
2022/05/22 07:35:09;;;;;;;6.25;0.62;;;;;;;20.56;37.45;100431.42;1719261;82;26021;-60
2022/05/22 07:37:55;;;;;;;4.12;1.07;;;;;;;20.73;37.50;100431.85;1719511;83;25804;-61
2022/05/22 07:40:35;;;;;;;8.73;0.90;;;;;;;20.90;36.72;100426.79;1717048;83;28281;-60
2022/05/22 07:43:21;;;;;;;5.87;1.30;;;;;;;20.79;34.93;100421.45;1720630;83;25858;-60
2022/05/22 07:45:59;;;;;;;14.40;7.70;;;;;;;20.98;35.99;100436.13;1700860;82;25553;-61
2022/05/22 07:48:44;;;;;;;8.73;3.27;;;;;;;21.06;36.38;100425.50;1719519;83;25983;-60
2022/05/22 07:51:20;;;;;;;4.20;1.37;;;;;;;21.10;35.58;100424.03;1718719;83;25726;-60
2022/05/22 07:53:58;;;;;;;8.18;1.82;;;;;;;21.15;36.04;100424.22;1685630;84;28374;-60
2022/05/22 07:56:39;;;;;;;4.85;1.05;;;;;;;21.11;34.04;100427.09;1718818;83;25753;-59
2022/05/22 07:59:08;;;;;;;2.35;0.70;;;;;;;20.96;33.24;100416.39;1719062;81;25734;-59
2022/05/22 08:01:55;;;;;;;4.05;1.00;;;;;;;21.04;34.66;100428.97;1718230;81;26196;-61
2022/05/22 08:04:24;;;;;;;5.70;0.70;;;;;;;21.19;34.51;100425.48;1721210;83;25773;-61
2022/05/22 08:07:10;;;;;;;7.45;0.57;;;;;;;21.17;34.19;100419.38;1721011;83;29653;-61
2022/05/22 08:09:39;;;;;;;1.85;0.45;;;;;;;21.28;34.35;100415.67;1718062;80;25717;-60
2022/05/22 08:12:09;;;;;;;2.72;1.10;;;;;;;21.14;33.03;100425.81;1723113;83;25721;-61
2022/05/22 08:14:36;;;;;;;3.33;0.90;;;;;;;21.05;33.12;100419.20;1723045;83;26087;-60
2022/05/22 08:17:04;;;;;;;4.30;0.80;;;;;;;21.15;33.81;100426.13;1722841;82;25765;-59
2022/05/22 08:19:34;;;;;;;4.92;1.30;;;;;;;21.22;33.65;100416.00;1722890;82;27500;-59
2022/05/22 08:22:19;;;;;;;4.72;1.20;;;;;;;21.20;32.96;100421.66;1723037;81;25741;-59
2022/05/22 08:24:48;;;;;;;4.28;1.20;;;;;;;20.95;32.60;100418.27;1715577;83;25564;-60
2022/05/22 08:27:15;;;;;;;7.33;2.35;;;;;;;20.79;33.23;100407.28;1722818;81;26110;-61
2022/05/22 08:29:41;;;;;;;5.62;1.70;;;;;;;20.79;33.81;100435.12;1722825;83;25789;-60
2022/05/22 08:32:09;;;;;;;10.88;2.50;;;;;;;20.77;33.81;100412.11;1722732;81;28345;-60
2022/05/22 08:34:36;;;;;;;9.75;1.52;;;;;;;20.74;34.31;100402.13;1722950;81;25511;-59
2022/05/22 08:37:03;;;;;;;8.73;2.22;;;;;;;20.68;33.29;100401.56;1710296;81;25724;-60
2022/05/22 08:39:31;;;;;;;8.90;1.12;;;;;;;20.53;33.51;100397.17;1693989;84;26112;-60
2022/05/22 08:41:59;;;;;;;12.55;2.30;;;;;;;20.51;34.56;100400.64;1694038;84;25644;-60
2022/05/22 08:44:31;;;;;;;2.37;1.30;;;;;;;20.49;33.54;100391.80;1696651;81;27475;-59
2022/05/22 08:47:19;;;;;;;7.67;3.10;;;;;;;20.47;34.07;100380.27;1710326;83;26502;-59
2022/05/22 08:50:12;;;;;;;5.30;1.27;;;;;;;20.63;34.20;100374.36;1721438;83;25810;-59
2022/05/22 08:52:56;;;;;;;6.35;0.93;;;;;;;20.89;34.26;100370.43;1721493;83;26292;-60
2022/05/22 09:01:15;;;;;;;10.32;1.10;;;;;;;21.21;33.77;100359.61;1756773;81;25698;-59
2022/05/22 09:03:58;;;;;;;3.30;0.70;;;;;;;21.49;33.66;100353.78;1756508;80;25450;-59
2022/05/22 09:06:28;;;;;;;;;;;;;;;21.79;32.86;100346.38;1753572;81;26897;-59
2022/05/22 09:08:55;;;;;;;1.30;0.80;;;;;;;22.00;32.11;100349.82;1756778;80;25699;-59
2022/05/22 09:11:56;;;;;;;6.03;1.20;;;;;;;22.16;32.42;100347.89;1757761;80;28472;-59
2022/05/22 09:14:31;;;;;;;3.83;0.80;;;;;;;22.32;32.36;100336.88;1757734;81;25517;-60
2022/05/22 09:17:15;;;;;;;1.57;0.72;;;;;;;22.61;32.01;100341.92;1754802;81;25728;-60
2022/05/22 09:19:49;;;;;;;6.75;1.20;;;;;;;22.80;31.84;100321.69;1758007;80;34604;-60
2022/05/22 09:22:24;;;;;;;11.57;0.93;;;;;;;23.05;31.17;100326.76;1757312;80;25419;-61
2022/05/22 09:25:45;;;;;;;1.62;1.12;;;;;;;23.27;31.22;100314.78;1756882;80;27461;-61
2022/05/22 09:28:38;;;;;;;9.23;1.55;;;;;;;23.63;30.68;100320.42;1729046;82;25934;-59
2022/05/22 09:31:40;;;;;;;2.60;0.65;;;;;;;23.95;29.22;100322.39;1728717;81;25756;-60
2022/05/22 09:34:55;;;;;;;6.12;1.12;;;;;;;24.08;28.02;100314.46;1729204;83;26146;-59
2022/05/22 09:37:33;;;;;;;6.72;0.98;;;;;;;23.88;28.30;100317.52;1727920;81;25552;-60
2022/05/22 09:40:23;;;;;;;9.38;1.10;;;;;;;24.27;29.01;100315.17;1729044;81;27435;-59
2022/05/22 09:43:18;;;;;;;3.60;0.62;;;;;;;24.60;28.38;100317.02;1728375;83;26443;-60
2022/05/22 09:46:39;;;;;;;2.80;0.60;;;;;;;24.52;27.84;100303.94;1729270;82;25814;-61
2022/05/22 09:49:50;;;;;;;6.42;0.78;;;;;;;24.23;28.21;100316.75;1727497;83;26114;-61
2022/05/22 09:52:28;;;;;;;1.75;0.88;;;;;;;24.51;28.33;100317.39;1727008;83;25273;-61
2022/05/22 09:55:33;;;;;;;2.42;0.80;;;;;;;25.00;26.95;100318.47;1727169;83;27558;-62
2022/05/22 09:58:11;;;;;;;4.08;1.00;;;;;;;25.21;27.23;100325.77;1714583;83;25720;-59
2022/05/22 10:00:55;;;;;;;1.72;0.60;;;;;;;25.37;27.11;100321.94;1728232;83;25512;-59
2022/05/22 10:03:42;;;;;;;9.15;1.12;;;;;;;25.40;26.38;100321.48;1725999;83;26996;-59
2022/05/22 10:06:35;;;;;;;7.75;1.35;;;;;;;25.16;26.71;100314.13;1728153;83;26165;-59
2022/05/22 10:09:20;;;;;;;2.30;1.10;;;;;;;24.94;26.87;100322.73;1726800;83;32528;-59
2022/05/22 10:12:07;;;;;;;7.00;1.07;;;;;;;25.38;27.07;100316.17;1701789;83;25433;-60
2022/05/22 10:15:08;;;;;;;2.87;0.78;;;;;;;26.16;26.08;100322.55;1728407;81;25530;-61
2022/05/22 10:18:01;;;;;;;3.35;0.98;;;;;;;26.39;25.36;100320.15;1728867;83;26103;-61
2022/05/22 10:21:21;;;;;;;4.92;1.32;;;;;;;26.72;25.55;100317.02;1727518;83;25694;-60
2022/05/22 10:24:11;;;;;;;1.50;0.80;;;;;;;27.57;25.03;100309.48;1727517;83;27481;-60
2022/05/22 10:27:15;;;;;;;8.13;1.12;;;;;;;28.16;24.31;100291.23;1729031;82;25733;-60
2022/05/22 10:29:59;;;;;;;5.33;1.00;;;;;;;28.03;24.07;100297.45;1728693;83;25690;-59
2022/05/22 10:32:34;;;;;;;4.90;0.90;;;;;;;28.03;23.83;100287.78;1728642;83;26140;-59
2022/05/22 10:35:15;;;;;;;2.37;0.70;;;;;;;28.16;23.24;100299.52;1727487;83;25749;-59
2022/05/22 10:37:47;;;;;;;5.80;0.95;;;;;;;28.37;23.28;100284.75;1725225;82;27657;-59
2022/05/22 10:40:19;;;;;;;6.17;0.72;;;;;;;28.67;22.75;100294.30;1729077;81;25851;-59
2022/05/22 10:42:51;;;;;;;8.08;0.80;;;;;;;29.05;22.36;100296.42;1728841;83;25639;-60
2022/05/22 10:45:36;;;;;;;;;;;;;;;28.99;21.72;100288.37;1731309;81;26073;-60
2022/05/22 10:48:23;;;;;;;4.70;1.55;;;;;;;29.22;21.24;100277.36;1727497;83;25694;-60
2022/05/22 10:51:13;;;;;;;9.00;0.80;;;;;;;29.71;21.67;100285.77;1727808;83;27604;-61
2022/05/22 10:53:47;;;;;;;4.12;0.90;;;;;;;30.11;20.89;100283.28;1727630;83;25781;-60
2022/05/22 10:56:25;;;;;;;3.30;0.70;;;;;;;30.70;20.67;100289.29;1727970;83;25862;-61
2022/05/22 10:59:02;;;;;;;3.72;0.60;;;;;;;31.18;20.53;100274.36;1727214;82;26118;-59
2022/05/22 11:04:16;;;;;;;5.75;0.80;;;;;;;32.12;19.19;100271.15;1895564;74;25668;-60
2022/05/22 11:06:57;;;;;;;6.90;0.72;;;;;;;32.22;18.91;100282.72;1866492;75;25735;-59
2022/05/22 11:09:32;;;;;;;4.85;0.80;;;;;;;31.36;18.92;100275.64;1856780;77;28220;-59
2022/05/22 11:12:12;;;;;;;2.02;0.70;;;;;;;29.91;20.54;100280.77;1857026;75;27344;-60
2022/05/22 11:14:40;;;;;;;8.38;1.30;;;;;;;30.19;20.71;100277.73;1856781;77;25691;-60
2022/05/22 11:17:17;;;;;;;18.15;1.40;;;;;;;30.71;19.87;100284.84;1856911;77;25639;-60
2022/05/22 11:19:52;;;;;;;14.20;1.55;;;;;;;30.66;19.73;100277.08;1870205;76;26200;-60
2022/05/22 11:23:17;;;;;;;10.00;1.07;;;;;;;29.59;20.85;100279.66;1882769;76;27482;-61
2022/05/22 11:26:14;;;;;;;5.65;1.40;;;;;;;29.36;21.10;100279.08;1847560;77;25592;-61
2022/05/22 11:29:12;;;;;;;6.53;1.15;;;;;;;30.25;20.80;100274.68;1847916;77;25766;-60
2022/05/22 11:32:02;;;;;;;1.02;0.40;;;;;;;31.09;20.18;100292.70;1859796;75;25777;-61
2022/05/22 11:34:53;;;;;;;7.53;0.60;;;;;;;30.91;20.05;100268.63;1856575;77;25766;-60
2022/05/22 11:37:40;;;;;;;0.90;0.80;;;;;;;30.13;19.55;100279.69;1856666;77;28546;-59
2022/05/22 11:40:32;;;;;;;3.08;0.78;;;;;;;29.89;19.70;100277.47;1856722;77;25689;-58
2022/05/22 11:43:08;;;;;;;3.77;0.55;;;;;;;29.14;20.31;100291.17;1857532;75;25453;-60
2022/05/22 11:46:07;;;;;;;5.25;1.05;;;;;;;28.53;20.76;100284.26;1794629;75;25896;-61
2022/05/22 11:48:55;;;;;;;3.98;0.80;;;;;;;28.04;21.43;100271.48;1865253;75;25703;-61
2022/05/22 11:51:51;;;;;;;1.60;0.70;;;;;;;27.28;22.30;100267.75;1862156;75;27484;-61
2022/05/22 11:54:41;;;;;;;6.33;0.78;;;;;;;26.89;22.90;100267.89;1857143;76;25777;-61
2022/05/22 11:57:40;;;;;;;3.42;0.50;;;;;;;26.36;23.39;100268.81;1867699;75;25666;-60
2022/05/22 12:00:19;;;;;;;8.13;1.02;;;;;;;25.98;23.73;100273.16;1863807;75;25695;-60
2022/05/22 12:03:03;;;;;;;4.15;1.10;;;;;;;25.87;24.26;100263.35;1859219;76;25913;-59
2022/05/22 12:05:57;;;;;;;2.15;0.90;;;;;;;26.70;23.47;100250.25;1859117;77;27484;-59
2022/05/22 12:08:54;;;;;;;2.17;0.60;;;;;;;26.22;23.51;100262.82;1859444;76;25737;-60
2022/05/22 12:11:29;;;;;;;4.05;0.78;;;;;;;25.99;24.01;100257.78;1878659;75;25786;-59
2022/05/22 12:14:16;;;;;;;3.22;0.40;;;;;;;27.18;23.14;100257.45;1870866;75;25675;-60
2022/05/22 12:16:51;;;;;;;2.15;0.70;;;;;;;27.37;22.40;100247.95;1856820;77;25758;-60